createdAt,value
2023-04-14T00:00:16.681Z,3.13
2023-04-14T00:02:44.911Z,3.20
2023-04-14T00:05:13.168Z,3.10
2023-04-14T00:07:41.185Z,3.77
2023-04-14T00:10:09.395Z,3.23
2023-04-14T00:12:37.466Z,3.73
2023-04-14T00:15:05.697Z,3.50
2023-04-14T00:17:33.646Z,4.53
2023-04-14T00:20:01.681Z,3.50
2023-04-14T00:22:29.548Z,3.37
2023-04-14T00:24:57.545Z,3.23
2023-04-14T00:27:25.538Z,3.43
2023-04-14T00:29:53.547Z,4.80
2023-04-14T00:32:21.746Z,3.93
2023-04-14T00:34:49.769Z,4.33
2023-04-14T00:37:18.078Z,4.20
2023-04-14T00:39:46.126Z,2.73
2023-04-14T00:42:14.092Z,3.67
2023-04-14T00:44:42.039Z,5.30
2023-04-14T00:47:09.956Z,3.17
2023-04-14T00:49:38.106Z,3.50
2023-04-14T00:52:06.259Z,4.90
2023-04-14T00:54:34.329Z,7.13
2023-04-14T00:57:02.452Z,4.53
2023-04-14T00:59:31.091Z,6.07
2023-04-14T01:01:59.334Z,4.33
2023-04-14T01:04:33.850Z,5.73
2023-04-14T01:07:13.282Z,4.10
2023-04-14T01:09:41.195Z,7.47
2023-04-14T01:12:17.599Z,6.20
2023-04-14T01:15:02.738Z,7.43
2023-04-14T01:18:11.783Z,6.90
2023-04-14T01:20:46.275Z,5.00
2023-04-14T01:23:25.242Z,6.27
2023-04-14T01:26:20.755Z,6.00
2023-04-14T01:29:04.113Z,5.53
2023-04-14T01:31:51.054Z,5.93
2023-04-14T01:34:31.438Z,6.03
2023-04-14T01:37:03.581Z,8.20
2023-04-14T01:39:36.391Z,5.80
2023-04-14T01:42:05.996Z,6.53
2023-04-14T01:44:33.913Z,8.57
2023-04-14T01:47:03.847Z,5.00
2023-04-14T01:49:33.080Z,4.93
2023-04-14T01:52:01.922Z,3.77
2023-04-14T01:54:29.923Z,5.17
2023-04-14T01:56:58.841Z,4.90
2023-04-14T01:59:26.824Z,4.97
2023-04-14T02:01:54.875Z,4.20
2023-04-14T02:04:23.929Z,4.73
2023-04-14T02:06:51.916Z,4.80
2023-04-14T02:09:20.792Z,4.93
2023-04-14T02:11:50.549Z,4.30
2023-04-14T02:14:19.232Z,4.50
2023-04-14T02:16:48.444Z,4.93
2023-04-14T02:19:21.831Z,4.80
2023-04-14T02:21:50.975Z,6.23
2023-04-14T02:24:18.963Z,5.30
2023-04-14T02:26:53.222Z,4.53
2023-04-14T02:29:23.192Z,6.67
2023-04-14T02:32:04.044Z,5.13
2023-04-14T02:34:36.130Z,5.13
2023-04-14T02:37:13.412Z,8.23
2023-04-14T02:39:45.195Z,4.63
2023-04-14T02:42:17.013Z,4.90
2023-04-14T02:44:53.312Z,5.33
2023-04-14T02:47:27.541Z,5.03
2023-04-14T02:49:55.608Z,6.57
2023-04-14T02:52:23.581Z,5.57
2023-04-14T02:54:51.687Z,5.57
2023-04-14T02:57:19.758Z,6.30
2023-04-14T02:59:47.807Z,8.57
2023-04-14T03:02:15.756Z,6.13
2023-04-14T03:04:43.860Z,6.33
2023-04-14T03:07:13.201Z,4.43
2023-04-14T03:09:41.737Z,7.97
2023-04-14T03:12:09.939Z,5.23
2023-04-14T03:14:37.976Z,6.53
2023-04-14T03:17:05.976Z,5.00
2023-04-14T03:19:34.093Z,4.57
2023-04-14T03:22:02.366Z,4.93
2023-04-14T03:24:32.614Z,6.40
2023-04-14T03:27:10.564Z,5.90
2023-04-14T03:29:42.995Z,7.50
2023-04-14T03:32:11.047Z,7.97
2023-04-14T03:34:45.407Z,7.73
2023-04-14T03:37:13.353Z,8.70
2023-04-14T03:39:41.432Z,6.67
2023-04-14T03:42:09.676Z,5.87
2023-04-14T03:44:40.233Z,6.33
2023-04-14T03:47:09.604Z,6.97
2023-04-14T03:49:39.537Z,7.60
2023-04-14T03:52:09.409Z,7.43
2023-04-14T03:54:38.029Z,7.03
2023-04-14T03:57:07.545Z,8.47
2023-04-14T03:59:35.593Z,8.43
2023-04-14T04:02:04.277Z,7.53
2023-04-14T04:04:32.622Z,7.07
2023-04-14T04:07:00.644Z,7.50
2023-04-14T04:09:28.705Z,8.73
2023-04-14T04:11:59.376Z,6.20
2023-04-14T04:14:27.618Z,5.90
2023-04-14T04:16:55.602Z,9.10
2023-04-14T04:19:24.498Z,7.33
2023-04-14T04:21:54.172Z,6.80
2023-04-14T04:24:23.649Z,10.00
2023-04-14T04:26:52.072Z,9.67
2023-04-14T04:29:20.109Z,7.63
2023-04-14T04:31:48.166Z,7.80
2023-04-14T04:34:16.126Z,9.03
2023-04-14T04:36:44.721Z,11.47
2023-04-14T04:39:12.627Z,9.00
2023-04-14T04:41:40.567Z,6.97
2023-04-14T04:44:08.534Z,7.83
2023-04-14T04:46:55.153Z,7.63
2023-04-14T04:49:23.426Z,7.50
2023-04-14T04:51:51.524Z,10.57
2023-04-14T04:54:19.650Z,7.43
2023-04-14T04:56:47.737Z,8.30
2023-04-14T04:59:15.747Z,8.93
2023-04-14T05:01:43.822Z,8.93
2023-04-14T05:04:12.044Z,7.97
2023-04-14T05:06:40.063Z,7.77
2023-04-14T05:09:08.085Z,7.70
2023-04-14T05:11:36.501Z,6.97
2023-04-14T05:14:04.785Z,9.50
2023-04-14T05:16:33.394Z,9.03
2023-04-14T05:19:01.689Z,10.17
2023-04-14T05:21:29.780Z,6.33
2023-04-14T05:23:57.777Z,10.50
2023-04-14T05:28:56.652Z,6.77
2023-04-14T05:31:24.704Z,9.13
2023-04-14T05:33:52.712Z,7.10
2023-04-14T05:36:20.740Z,12.13
2023-04-14T05:38:48.742Z,8.07
2023-04-14T05:41:16.790Z,6.13
2023-04-14T05:43:44.790Z,8.63
2023-04-14T05:46:12.740Z,8.07
2023-04-14T05:48:40.736Z,4.87
2023-04-14T05:51:08.699Z,6.43
2023-04-14T05:53:36.724Z,7.90
2023-04-14T05:56:04.681Z,5.80
2023-04-14T05:58:32.698Z,5.00
2023-04-14T06:01:00.758Z,9.17
2023-04-14T06:03:29.012Z,7.50
2023-04-14T06:05:57.167Z,4.93
2023-04-14T06:08:25.180Z,4.87
2023-04-14T06:10:53.282Z,7.20
2023-04-14T06:13:24.132Z,5.90
2023-04-14T06:15:52.515Z,7.13
2023-04-14T06:18:20.588Z,6.37
2023-04-14T06:20:48.552Z,8.13
2023-04-14T06:23:16.491Z,5.90
2023-04-14T06:25:44.385Z,5.07
2023-04-14T06:28:12.403Z,6.90
2023-04-14T06:30:40.376Z,7.83
2023-04-14T06:33:08.847Z,4.87
2023-04-14T06:35:37.080Z,4.60
2023-04-14T06:38:05.067Z,3.57
2023-04-14T06:40:32.989Z,4.20
2023-04-14T06:43:00.977Z,7.67
2023-04-14T06:45:28.965Z,4.70
2023-04-14T06:47:57.506Z,5.50
2023-04-14T06:50:25.565Z,7.87
2023-04-14T06:52:53.488Z,8.17
2023-04-14T06:55:23.018Z,6.87
2023-04-14T06:57:51.009Z,5.50
2023-04-14T07:00:19.349Z,5.03
2023-04-14T07:02:47.419Z,5.13
2023-04-14T07:05:15.895Z,8.47
2023-04-14T07:07:44.886Z,6.97
2023-04-14T07:10:13.924Z,6.53
2023-04-14T07:12:41.964Z,7.30
2023-04-14T07:15:10.351Z,8.07
2023-04-14T07:17:38.509Z,6.97
2023-04-14T07:20:07.185Z,4.33
2023-04-14T07:22:35.861Z,6.20
2023-04-14T07:25:04.053Z,8.47
2023-04-14T07:27:33.264Z,7.07
2023-04-14T07:30:01.338Z,7.57
2023-04-14T07:32:29.358Z,6.33
2023-04-14T07:34:58.961Z,5.80
2023-04-14T07:37:27.412Z,3.37
2023-04-14T07:39:55.452Z,6.17
2023-04-14T07:42:23.372Z,5.70
2023-04-14T07:44:51.390Z,5.07
2023-04-14T07:47:19.421Z,5.30
2023-04-14T07:49:47.648Z,5.00
2023-04-14T07:54:44.010Z,6.40
2023-04-14T07:57:12.347Z,5.87
2023-04-14T07:59:44.078Z,5.93
2023-04-14T08:02:12.716Z,6.13
2023-04-14T08:04:40.787Z,4.70
2023-04-14T08:07:08.953Z,4.63
2023-04-14T08:09:37.070Z,4.73
2023-04-14T08:12:05.114Z,4.97
2023-04-14T08:14:33.208Z,3.67
2023-04-14T08:17:01.453Z,4.97
2023-04-14T08:19:29.436Z,4.37
2023-04-14T08:21:58.402Z,3.90
2023-04-14T08:24:26.381Z,5.13
2023-04-14T08:26:55.878Z,4.80
2023-04-14T08:29:24.301Z,3.87
2023-04-14T08:31:52.333Z,3.97
2023-04-14T08:34:21.763Z,3.63
2023-04-14T08:36:57.348Z,3.37
2023-04-14T08:39:25.260Z,3.60
2023-04-14T08:41:54.366Z,4.33
2023-04-14T08:44:23.166Z,4.63
2023-04-14T08:46:54.001Z,2.63
2023-04-14T08:49:49.232Z,3.93
2023-04-14T08:52:17.688Z,3.13
2023-04-14T08:54:45.772Z,5.17
2023-04-14T08:57:13.836Z,5.33
2023-04-14T08:59:42.802Z,4.30
2023-04-14T09:02:11.448Z,5.70
2023-04-14T09:04:39.925Z,3.47
2023-04-14T09:07:08.480Z,4.23
2023-04-14T09:09:36.411Z,2.17
2023-04-14T09:12:05.104Z,4.25
2023-04-14T09:14:33.170Z,3.78
2023-04-14T09:17:01.207Z,3.87
2023-04-14T09:19:29.224Z,2.12
2023-04-14T09:21:57.675Z,2.72
2023-04-14T09:24:32.625Z,4.03
2023-04-14T09:27:06.683Z,2.42
2023-04-14T09:29:34.960Z,3.15
2023-04-14T09:32:03.052Z,3.15
2023-04-14T09:34:31.410Z,2.60
2023-04-14T09:37:12.479Z,3.28
2023-04-14T09:39:49.318Z,4.37
2023-04-14T09:42:18.490Z,2.50
2023-04-14T09:44:56.767Z,2.33
2023-04-14T09:47:26.038Z,2.62
2023-04-14T09:50:02.359Z,2.53
2023-04-14T09:52:46.226Z,4.18
2023-04-14T09:55:15.421Z,2.22
2023-04-14T09:57:48.671Z,2.85
2023-04-14T10:00:23.744Z,3.45
2023-04-14T10:02:53.339Z,1.52
2023-04-14T10:05:22.243Z,5.10
2023-04-14T10:07:50.591Z,5.18
2023-04-14T10:10:18.838Z,2.70
2023-04-14T10:12:47.270Z,2.90
2023-04-14T10:15:16.781Z,3.40
2023-04-14T10:17:44.898Z,3.10
2023-04-14T10:20:13.133Z,2.72
2023-04-14T10:22:42.310Z,3.75
2023-04-14T10:25:11.416Z,2.87
2023-04-14T10:27:39.462Z,4.30
2023-04-14T10:30:08.188Z,2.97
2023-04-14T10:32:37.243Z,4.15
2023-04-14T10:35:11.437Z,3.05
2023-04-14T10:37:39.579Z,1.33
2023-04-14T10:40:11.594Z,1.95
2023-04-14T10:42:57.815Z,1.92
2023-04-14T10:45:25.851Z,0.95
2023-04-14T10:47:53.993Z,1.85
2023-04-14T10:50:23.737Z,3.78
2023-04-14T10:52:57.161Z,2.25
2023-04-14T10:55:29.413Z,1.37
2023-04-14T10:58:07.037Z,2.95
2023-04-14T11:00:39.049Z,2.40
2023-04-14T11:03:12.464Z,2.80
2023-04-14T11:05:44.679Z,3.67
2023-04-14T11:08:29.488Z,1.60
2023-04-14T11:11:05.737Z,2.05
2023-04-14T11:13:34.817Z,2.08
2023-04-14T11:16:03.309Z,2.40
2023-04-14T11:18:31.377Z,2.03
2023-04-14T11:21:12.032Z,1.77
2023-04-14T11:23:40.220Z,2.37
2023-04-14T11:26:12.263Z,4.20
2023-04-14T11:28:44.454Z,1.35
2023-04-14T11:31:14.365Z,1.67
2023-04-14T11:33:43.504Z,2.72
2023-04-14T11:36:12.571Z,2.85
2023-04-14T11:38:43.399Z,2.22
2023-04-14T11:41:11.812Z,1.85
2023-04-14T11:43:40.009Z,2.60
2023-04-14T11:46:09.733Z,2.95
2023-04-14T11:48:38.552Z,2.25
2023-04-14T11:51:06.877Z,2.37
2023-04-14T11:53:35.850Z,3.67
2023-04-14T11:56:04.113Z,2.45
2023-04-14T11:58:33.500Z,2.80
2023-04-14T12:01:01.609Z,2.78
2023-04-14T12:06:18.374Z,2.25
2023-04-14T12:08:51.818Z,1.87
2023-04-14T12:11:19.802Z,2.28
2023-04-14T12:13:48.511Z,2.78
2023-04-14T12:16:17.155Z,1.25
2023-04-14T12:18:45.620Z,2.70
2023-04-14T12:21:18.068Z,0.70
2023-04-14T12:23:49.691Z,1.55
2023-04-14T12:26:18.036Z,3.03
2023-04-14T12:28:46.302Z,1.58
2023-04-14T12:31:14.302Z,1.17
2023-04-14T12:33:42.797Z,2.30
2023-04-14T12:36:14.267Z,3.40
2023-04-14T12:38:42.992Z,1.25
2023-04-14T12:41:12.159Z,1.45
2023-04-14T12:43:42.138Z,1.55
2023-04-14T12:46:10.304Z,1.65
2023-04-14T12:48:45.706Z,2.25
2023-04-14T12:51:17.799Z,3.85
2023-04-14T12:53:47.056Z,1.70
2023-04-14T12:56:20.944Z,2.00
2023-04-14T12:58:49.161Z,2.08
2023-04-14T13:01:19.413Z,3.40
2023-04-14T13:03:53.010Z,2.45
2023-04-14T13:06:22.513Z,3.87
2023-04-14T13:08:52.550Z,1.37
2023-04-14T13:11:21.586Z,2.37
2023-04-14T13:13:49.812Z,2.25
2023-04-14T13:16:19.198Z,1.80
2023-04-14T13:18:48.977Z,2.70
2023-04-14T13:21:17.320Z,2.10
2023-04-14T13:23:45.534Z,1.73
2023-04-14T13:26:13.649Z,1.75
2023-04-14T13:28:41.851Z,1.48
2023-04-14T13:31:11.848Z,2.12
2023-04-14T13:33:39.962Z,1.80
2023-04-14T13:36:08.353Z,2.58
2023-04-14T13:38:36.462Z,2.62
2023-04-14T13:41:04.564Z,1.67
2023-04-14T13:43:34.347Z,2.12
2023-04-14T13:46:02.703Z,2.00
2023-04-14T13:48:32.564Z,1.48
2023-04-14T13:51:00.987Z,1.48
2023-04-14T13:53:28.962Z,1.35
2023-04-14T13:55:56.926Z,1.25
2023-04-14T13:58:26.738Z,1.95
2023-04-14T14:00:54.748Z,1.42
2023-04-14T14:03:23.233Z,1.62
2023-04-14T14:05:51.412Z,1.90
2023-04-14T14:08:19.503Z,2.00
2023-04-14T14:10:47.438Z,1.73
2023-04-14T14:13:17.273Z,1.77
2023-04-14T14:15:46.484Z,3.08
2023-04-14T14:18:15.742Z,2.37
2023-04-14T14:20:43.777Z,5.57
2023-04-14T14:23:14.267Z,4.93
2023-04-14T14:25:42.655Z,4.32
2023-04-14T14:28:10.760Z,2.97
2023-04-14T14:30:38.878Z,3.72
2023-04-14T14:33:07.368Z,3.75
2023-04-14T14:35:35.372Z,2.08
2023-04-14T14:38:03.338Z,2.80
2023-04-14T14:40:31.754Z,1.62
2023-04-14T14:42:59.921Z,1.73
2023-04-14T14:45:30.784Z,2.05
2023-04-14T14:47:59.634Z,2.05
2023-04-14T14:50:27.702Z,1.85
2023-04-14T14:52:58.193Z,2.17
2023-04-14T14:55:26.163Z,1.77
2023-04-14T14:57:54.168Z,2.60
2023-04-14T15:00:22.182Z,1.45
2023-04-14T15:02:50.482Z,1.60
2023-04-14T15:05:18.885Z,1.45
2023-04-14T15:07:46.922Z,2.95
2023-04-14T15:10:16.128Z,3.20
2023-04-14T15:12:44.427Z,1.33
2023-04-14T15:15:12.917Z,2.20
2023-04-14T15:17:40.904Z,1.08
2023-04-14T15:20:09.736Z,1.98
2023-04-14T15:22:37.836Z,2.78
2023-04-14T15:25:06.624Z,3.50
2023-04-14T15:27:34.614Z,2.35
2023-04-14T15:30:02.818Z,4.30
2023-04-14T15:32:30.896Z,2.92
2023-04-14T15:34:59.058Z,2.12
2023-04-14T15:37:28.038Z,7.18
2023-04-14T15:39:56.477Z,3.87
2023-04-14T15:42:24.514Z,2.00
2023-04-14T15:44:52.691Z,2.80
2023-04-14T15:47:20.794Z,1.85
2023-04-14T15:49:50.017Z,1.90
2023-04-14T15:52:30.297Z,1.37
2023-04-14T15:54:58.303Z,1.87
2023-04-14T15:57:26.331Z,0.65
2023-04-14T15:59:54.413Z,2.30
2023-04-14T16:02:22.879Z,1.92
2023-04-14T16:04:51.098Z,4.78
2023-04-14T16:07:19.063Z,3.92
2023-04-14T16:09:47.878Z,2.40
2023-04-14T16:12:16.057Z,2.97
2023-04-14T16:14:44.411Z,1.45
2023-04-14T16:17:12.698Z,2.87
2023-04-14T16:19:40.668Z,1.48
2023-04-14T16:22:08.708Z,1.27
2023-04-14T16:24:36.778Z,2.83
2023-04-14T16:27:04.866Z,2.20
2023-04-14T16:29:33.227Z,2.17
2023-04-14T16:32:01.165Z,1.77
2023-04-14T16:34:29.235Z,1.08
2023-04-14T16:36:57.261Z,2.10
2023-04-14T16:39:25.512Z,2.35
2023-04-14T16:41:53.510Z,3.25
2023-04-14T16:44:21.647Z,2.00
2023-04-14T16:46:49.905Z,2.03
2023-04-14T16:49:18.733Z,3.60
2023-04-14T16:51:47.626Z,2.00
2023-04-14T16:54:15.689Z,3.70
2023-04-14T16:56:43.701Z,4.45
2023-04-14T16:59:11.742Z,2.75
2023-04-14T17:01:39.967Z,2.62
2023-04-14T17:04:08.606Z,1.05
2023-04-14T17:06:37.343Z,2.25
2023-04-14T17:09:05.806Z,1.45
2023-04-14T17:11:33.837Z,1.80
2023-04-14T17:14:02.319Z,3.97
2023-04-14T17:16:30.663Z,2.30
2023-04-14T17:18:59.755Z,2.87
2023-04-14T17:21:28.082Z,2.25
2023-04-14T17:23:56.704Z,2.85
2023-04-14T17:26:27.363Z,2.10
2023-04-14T17:28:55.466Z,3.95
2023-04-14T17:31:24.231Z,5.12
2023-04-14T17:33:52.615Z,4.53
2023-04-14T17:36:20.679Z,4.35
2023-04-14T17:38:48.726Z,6.10
2023-04-14T17:41:16.823Z,4.72
2023-04-14T17:43:45.062Z,3.00
2023-04-14T17:46:13.443Z,5.82
2023-04-14T17:48:41.770Z,3.58
2023-04-14T17:51:09.811Z,3.00
2023-04-14T17:53:38.044Z,4.93
2023-04-14T17:56:06.308Z,3.73
2023-04-14T17:58:34.699Z,4.43
2023-04-14T18:01:02.787Z,5.77
2023-04-14T18:03:31.012Z,6.10
2023-04-14T18:05:59.153Z,7.03
2023-04-14T18:08:27.364Z,4.07
2023-04-14T18:10:55.576Z,5.43
2023-04-14T18:13:23.946Z,4.50
2023-04-14T18:15:52.053Z,7.43
2023-04-14T18:18:20.204Z,6.13
2023-04-14T18:20:51.638Z,3.87
2023-04-14T18:23:20.384Z,8.00
2023-04-14T18:28:19.268Z,9.27
2023-04-14T18:30:54.511Z,20.13
2023-04-14T18:33:23.206Z,20.90
2023-04-14T18:35:55.082Z,26.83
2023-04-14T18:38:23.542Z,8.97
2023-04-14T18:40:51.706Z,12.90
2023-04-14T18:43:19.921Z,6.80
2023-04-14T18:45:49.066Z,9.97
2023-04-14T18:48:17.365Z,8.37
2023-04-14T18:50:45.537Z,7.33
2023-04-14T18:53:14.036Z,10.13
2023-04-14T18:55:45.195Z,9.67
2023-04-14T18:58:14.160Z,8.60
2023-04-14T19:00:42.375Z,7.80
2023-04-14T19:03:10.545Z,9.90
2023-04-14T19:05:38.761Z,11.30
2023-04-14T19:08:07.484Z,10.10
2023-04-14T19:10:35.945Z,7.73
2023-04-14T19:13:04.124Z,8.17
2023-04-14T19:15:32.096Z,8.10
2023-04-14T19:18:00.584Z,10.37
2023-04-14T19:20:28.617Z,9.20
2023-04-14T19:22:56.686Z,8.00
2023-04-14T19:25:24.664Z,10.07
2023-04-14T19:27:52.831Z,10.33
2023-04-14T19:30:20.999Z,6.57
2023-04-14T19:32:49.658Z,6.90
2023-04-14T19:35:17.769Z,4.00
2023-04-14T19:37:46.001Z,5.03
2023-04-14T19:40:14.657Z,6.53
2023-04-14T19:42:42.744Z,6.17
2023-04-14T19:45:11.936Z,6.03
2023-04-14T19:47:40.041Z,5.53
2023-04-14T19:50:09.391Z,5.77
2023-04-14T19:52:38.017Z,8.60
2023-04-14T19:55:06.903Z,9.03
2023-04-14T19:57:35.605Z,11.13
2023-04-14T20:00:08.166Z,8.50
2023-04-14T20:02:36.335Z,4.83
2023-04-14T20:05:06.145Z,6.40
2023-04-14T20:07:34.778Z,5.27
2023-04-14T20:10:03.085Z,5.33
2023-04-14T20:12:31.551Z,4.80
2023-04-14T20:14:59.593Z,5.00
2023-04-14T20:17:28.984Z,6.40
2023-04-14T20:19:56.973Z,6.60
2023-04-14T20:22:25.143Z,8.07
2023-04-14T20:24:53.165Z,8.70
2023-04-14T20:27:21.455Z,6.13
2023-04-14T20:29:49.769Z,5.90
2023-04-14T20:32:17.865Z,7.23
2023-04-14T20:34:46.156Z,8.33
2023-04-14T20:37:14.797Z,6.17
2023-04-14T20:39:42.890Z,5.57
2023-04-14T20:42:10.809Z,7.50
2023-04-14T20:44:38.856Z,5.83
2023-04-14T20:47:06.825Z,6.03
2023-04-14T20:49:34.997Z,8.50
2023-04-14T20:52:02.920Z,7.07
2023-04-14T20:54:30.962Z,9.70
2023-04-14T20:56:59.293Z,10.97
2023-04-14T20:59:27.637Z,8.07
2023-04-14T21:01:55.733Z,12.43
2023-04-14T21:04:23.927Z,6.03
2023-04-14T21:06:51.948Z,6.10
2023-04-14T21:09:20.189Z,10.60
2023-04-14T21:11:48.277Z,6.57
2023-04-14T21:15:29.229Z,6.50
2023-04-14T21:17:24.437Z,5.73
2023-04-14T21:19:52.464Z,7.37
2023-04-14T21:22:20.455Z,7.13
2023-04-14T21:24:49.938Z,7.67
2023-04-14T21:27:18.755Z,5.50
2023-04-14T21:29:47.177Z,11.70
2023-04-14T21:32:15.445Z,8.23
2023-04-14T21:34:43.683Z,11.87
2023-04-14T21:37:12.092Z,9.43
2023-04-14T21:39:40.136Z,11.37
2023-04-14T21:42:09.418Z,10.30
2023-04-14T21:44:37.936Z,9.07
2023-04-14T21:47:06.289Z,7.23
2023-04-14T21:49:34.333Z,6.63
2023-04-14T21:52:02.764Z,6.93
2023-04-14T21:54:31.542Z,6.10
2023-04-14T21:57:00.047Z,4.77
2023-04-14T21:59:28.643Z,5.77
2023-04-14T22:01:57.891Z,3.87
2023-04-14T22:04:35.982Z,5.03
2023-04-14T22:07:06.573Z,6.13
2023-04-14T22:09:35.048Z,4.70
2023-04-14T22:12:03.382Z,4.97
2023-04-14T22:14:32.480Z,6.63
2023-04-14T22:17:00.683Z,3.63
2023-04-14T22:19:30.018Z,5.70
2023-04-14T22:21:57.907Z,5.13
2023-04-14T22:24:26.595Z,3.47
2023-04-14T22:26:55.465Z,5.57
2023-04-14T22:29:23.464Z,3.00
2023-04-14T22:31:51.864Z,4.43
2023-04-14T22:34:19.877Z,5.37
2023-04-14T22:36:48.451Z,4.80
2023-04-14T22:39:16.444Z,4.60
2023-04-14T22:41:44.403Z,5.63
2023-04-14T22:44:12.354Z,4.60
2023-04-14T22:46:40.385Z,5.97
2023-04-14T22:49:08.779Z,3.60
2023-04-14T22:51:36.745Z,5.63
2023-04-14T22:54:04.876Z,3.67
2023-04-14T22:56:32.982Z,4.07
2023-04-14T22:59:01.246Z,5.90
2023-04-14T23:01:30.845Z,4.17
2023-04-14T23:03:58.982Z,2.43
2023-04-14T23:06:27.143Z,2.30
2023-04-14T23:08:55.096Z,4.93
2023-04-14T23:11:23.262Z,3.00
2023-04-14T23:13:51.224Z,2.10
2023-04-14T23:16:21.252Z,2.93
2023-04-14T23:18:54.218Z,2.80
2023-04-14T23:21:23.408Z,2.53
2023-04-14T23:23:51.885Z,5.33
2023-04-14T23:26:20.878Z,2.77
2023-04-14T23:28:48.943Z,2.23
2023-04-14T23:31:17.115Z,2.00
2023-04-14T23:33:45.124Z,4.53
2023-04-14T23:36:13.126Z,2.17
2023-04-14T23:38:41.593Z,3.93
2023-04-14T23:41:09.648Z,4.33
2023-04-14T23:43:37.728Z,3.00
2023-04-14T23:46:05.866Z,4.10
2023-04-14T23:48:33.931Z,3.03
2023-04-14T23:51:15.158Z,3.07
2023-04-14T23:53:50.456Z,5.40
2023-04-14T23:56:18.834Z,4.93
2023-04-14T23:58:46.850Z,4.07
